»·PEaware :: N623CK KMCC-U89

N623CK :: KMCC-U89

FLIGHT INFORMATION

Flight Status: Arrived
Operator: Privately registered:
United States
More flights under this callsign
Pilot: Charles S. (11412)
Aircraft: MITSUBISHI MU-2 MARQUISE
(MU2)
More flights by this aircraft type
Origin: KMCC McClellan
United States
Destination: U89 Glenns Ferry Mun
United States
More flights between these airports :: More routes between these airports
Route: +AUDIO V494 SWR V6 FMG V113 REO FUZII
File this flight plan on PilotEdge
Remarks:
Altitude:
(Current/Filed)
25,000ft
Speed:
(Current/Filed)
150kts
Departed: 21-Aug-18 03:46 PM
Arrived: 21-Aug-18 05:24 PM
Distance/Time
Traveled:
377nm/1:38
Distance/Time
To Go:
Arrived

Flight Plot

Page will automatically refresh every two minutes.

Flight plan parsing failed; only flown route is shown


Map Options




Map Legend


Flown Route
Filed Route
Departure Airport
Arrival Airport
Navaid (VOR, NDB)
Fix

Horizontal Profiles

Position Reports

Time Latitude Longitude Heading Altitude Ground
Speed
21-Aug-18 15:27 38.660590 -121.393423 0 79ft 0kts
21-Aug-18 15:28 38.660590 -121.393423 0 79ft 0kts
21-Aug-18 15:29 38.660590 -121.393423 0 79ft 0kts
21-Aug-18 15:30 38.660590 -121.393423 0 79ft 0kts
21-Aug-18 15:31 38.660590 -121.393423 0 79ft 0kts
21-Aug-18 15:32 38.660590 -121.393423 0 79ft 0kts
21-Aug-18 15:33 38.660590 -121.393423 0 79ft 0kts
21-Aug-18 15:34 38.660590 -121.393423 0 79ft 0kts
21-Aug-18 15:35 38.660590 -121.393423 0 79ft 0kts
21-Aug-18 15:36 38.660590 -121.393423 0 79ft 0kts
21-Aug-18 15:37 38.660590 -121.393423 0 79ft 0kts
21-Aug-18 15:38 38.660590 -121.393423 0 79ft 0kts
21-Aug-18 15:39 38.660590 -121.393423 0 79ft 0kts
21-Aug-18 15:40 38.660590 -121.393423 0 79ft 0kts
21-Aug-18 15:41 38.661271 -121.393426 0 79ft 11kts
21-Aug-18 15:42 38.664663 -121.396475 319 74ft 24kts
21-Aug-18 15:43 38.665611 -121.397609 330 72ft 10kts
21-Aug-18 15:44 38.671561 -121.397847 0 73ft 25kts
21-Aug-18 15:45 38.675850 -121.397845 359 75ft 26kts
21-Aug-18 15:46 38.682048 -121.398876 270 75ft 12kts
21-Aug-18 15:47 38.678980 -121.400622 182 73ft 87kts
21-Aug-18 15:48 38.650008 -121.400093 171 730ft 188kts
21-Aug-18 15:49 38.655576 -121.344601 16 2797ft 221kts
21-Aug-18 15:50 38.704973 -121.328027 13 3986ft 227kts
21-Aug-18 15:51 38.758319 -121.285995 43 5056ft 215kts
21-Aug-18 15:52 38.799922 -121.233556 43 6346ft 206kts
21-Aug-18 15:53 38.840121 -121.182577 43 7658ft 214kts
21-Aug-18 15:54 38.883681 -121.127255 43 8891ft 228kts
21-Aug-18 15:55 38.925209 -121.074471 43 9872ft 235kts
21-Aug-18 15:56 38.951027 -121.033730 68 10547ft 238kts
21-Aug-18 15:57 38.970677 -120.967027 69 11446ft 240kts
21-Aug-18 15:58 38.994853 -120.887445 68 12516ft 239kts
21-Aug-18 15:59 39.018943 -120.807953 68 13588ft 238kts
21-Aug-18 16:00 39.042872 -120.728750 67 14660ft 237kts
21-Aug-18 16:01 39.066766 -120.649678 67 15712ft 243kts
21-Aug-18 16:02 39.091140 -120.568062 67 16797ft 248kts
21-Aug-18 16:03 39.115757 -120.486150 67 17868ft 249kts
21-Aug-18 16:04 39.140566 -120.403135 67 18950ft 248kts
21-Aug-18 16:05 39.165027 -120.320986 68 20014ft 246kts
21-Aug-18 16:06 39.195065 -120.243493 50 20933ft 246kts
21-Aug-18 16:07 39.235668 -120.173531 50 21598ft 256kts
21-Aug-18 16:08 39.279012 -120.098213 50 22103ft 267kts
21-Aug-18 16:09 39.321345 -120.024438 50 22579ft 272kts
21-Aug-18 16:10 39.364189 -119.949478 49 23061ft 274kts
21-Aug-18 16:11 39.409308 -119.870584 49 23559ft 273kts
21-Aug-18 16:12 39.454173 -119.791839 49 24061ft 272kts
21-Aug-18 16:13 39.499050 -119.712837 49 24571ft 271kts
21-Aug-18 16:14 39.548114 -119.641404 25 25077ft 261kts
21-Aug-18 16:15 39.611317 -119.589045 26 25095ft 278kts
21-Aug-18 16:16 39.677440 -119.533591 26 25091ft 288kts
21-Aug-18 16:17 39.745018 -119.476743 27 25100ft 292kts
21-Aug-18 16:18 39.813337 -119.419153 26 25109ft 295kts
21-Aug-18 16:19 39.881180 -119.361832 26 25112ft 296kts
21-Aug-18 16:20 39.950114 -119.303460 27 25112ft 296kts
21-Aug-18 16:21 40.019031 -119.244949 27 25116ft 296kts
21-Aug-18 16:22 40.088046 -119.186213 27 25079ft 297kts
21-Aug-18 16:23 40.156752 -119.127606 27 25056ft 297kts
21-Aug-18 16:24 40.225759 -119.068570 27 25053ft 296kts
21-Aug-18 16:25 40.294490 -119.009644 27 25053ft 296kts
21-Aug-18 16:26 40.356322 -118.956496 27 25056ft 299kts
21-Aug-18 16:27 40.426147 -118.896370 27 25055ft 304kts
21-Aug-18 16:28 40.497352 -118.834882 27 25056ft 309kts
21-Aug-18 16:29 40.566863 -118.774610 28 25059ft 314kts
21-Aug-18 16:30 40.640010 -118.711195 28 25059ft 317kts
21-Aug-18 16:31 40.713675 -118.647081 28 25059ft 319kts
21-Aug-18 16:32 40.787371 -118.582747 28 25060ft 320kts
21-Aug-18 16:33 40.861836 -118.517568 28 25039ft 321kts
21-Aug-18 16:34 40.934831 -118.453497 28 25015ft 322kts
21-Aug-18 16:35 41.008042 -118.388975 26 25010ft 319kts
21-Aug-18 16:36 41.079144 -118.326233 27 24995ft 306kts
21-Aug-18 16:37 41.146992 -118.266293 26 24998ft 290kts
21-Aug-18 16:38 41.212870 -118.207847 26 24996ft 282kts
21-Aug-18 16:39 41.277383 -118.150509 27 25000ft 278kts
21-Aug-18 16:40 41.341473 -118.093342 26 25000ft 277kts
21-Aug-18 16:41 41.405381 -118.037044 15 24988ft 270kts
21-Aug-18 16:42 41.476958 -118.025071 359 24999ft 260kts
21-Aug-18 16:43 41.548728 -118.015161 359 24999ft 260kts
21-Aug-18 16:44 41.620483 -118.005199 359 25008ft 259kts
21-Aug-18 16:45 41.691881 -117.995264 359 25058ft 258kts
21-Aug-18 16:46 41.763266 -117.985295 359 25111ft 258kts
21-Aug-18 16:47 41.834366 -117.975284 359 25116ft 259kts
21-Aug-18 16:48 41.906042 -117.965242 359 25115ft 260kts
21-Aug-18 16:49 41.977822 -117.955154 359 25117ft 260kts
21-Aug-18 16:50 42.049161 -117.945110 359 25116ft 260kts
21-Aug-18 16:51 42.120866 -117.935023 359 25119ft 260kts
21-Aug-18 16:52 42.192981 -117.924882 359 25120ft 261kts
21-Aug-18 16:53 42.264386 -117.914768 359 25120ft 261kts
21-Aug-18 16:54 42.336589 -117.904475 359 25122ft 261kts
21-Aug-18 16:55 42.409027 -117.894175 359 25118ft 261kts
21-Aug-18 16:56 42.481129 -117.883902 359 25118ft 262kts
21-Aug-18 16:57 42.553197 -117.873585 359 25118ft 261kts
21-Aug-18 16:58 42.610258 -117.816092 55 25121ft 292kts
21-Aug-18 16:59 42.648089 -117.718238 56 25118ft 293kts
21-Aug-18 17:00 42.685710 -117.619831 56 25122ft 294kts
21-Aug-18 17:01 42.717660 -117.535925 56 25122ft 295kts
21-Aug-18 17:02 42.755244 -117.436797 56 25119ft 295kts
21-Aug-18 17:03 42.792906 -117.337429 56 25012ft 300kts
21-Aug-18 17:04 42.832296 -117.232929 57 24039ft 321kts
21-Aug-18 17:05 42.851839 -117.112787 81 23155ft 333kts
21-Aug-18 17:06 42.859123 -116.992020 91 22981ft 297kts
21-Aug-18 17:07 42.865219 -116.881593 91 22436ft 288kts
21-Aug-18 17:08 42.871341 -116.773395 91 21585ft 291kts
21-Aug-18 17:09 42.877561 -116.661756 89 20376ft 297kts
21-Aug-18 17:10 42.883639 -116.552053 88 19197ft 287kts
21-Aug-18 17:11 42.889420 -116.444674 86 17911ft 284kts
21-Aug-18 17:12 42.895132 -116.337343 86 16616ft 285kts
21-Aug-18 17:13 42.900716 -116.228181 82 15335ft 295kts
21-Aug-18 17:14 42.906243 -116.116497 82 14284ft 294kts
21-Aug-18 17:15 42.912127 -116.004797 84 13210ft 295kts
21-Aug-18 17:16 42.917515 -115.895100 84 12134ft 284kts
21-Aug-18 17:17 42.922579 -115.789536 84 10802ft 267kts
21-Aug-18 17:18 42.927227 -115.692010 84 9460ft 251kts
21-Aug-18 17:19 42.931529 -115.598637 83 8139ft 245kts
21-Aug-18 17:20 42.935756 -115.506343 83 7008ft 236kts
21-Aug-18 17:21 42.939288 -115.417661 86 6848ft 240kts
21-Aug-18 17:22 42.928502 -115.325239 106 4339ft 242kts
21-Aug-18 17:23 42.928021 -115.270778 337 4147ft 134kts
21-Aug-18 17:24 42.942426 -115.311944 278 2759ft 132kts
21-Aug-18 17:25 42.943960 -115.332667 102 2522ft 13kts
21-Aug-18 17:26 42.944130 -115.326969 93 2528ft 0kts
21-Aug-18 17:27 42.944130 -115.326969 95 2528ft 0kts

Navigation Log

Ident Type
Flight plan parsing failed, navigation log unavailable